createdAt,value
2023-04-18T00:00:44.848Z,9.00
2023-04-18T00:05:48.240Z,7.80
2023-04-18T00:10:50.039Z,7.30
2023-04-18T00:15:54.210Z,7.80
2023-04-18T00:20:56.826Z,7.20
2023-04-18T00:25:58.850Z,8.10
2023-04-18T00:31:00.765Z,8.10
2023-04-18T00:36:03.358Z,6.70
2023-04-18T00:41:05.099Z,8.50
2023-04-18T00:46:06.937Z,7.60
2023-04-18T00:51:09.857Z,8.20
2023-04-18T00:56:11.825Z,10.10
2023-04-18T01:01:13.694Z,10.70
2023-04-18T01:06:15.536Z,10.10
2023-04-18T01:11:17.607Z,10.20
2023-04-18T01:16:22.309Z,10.90
2023-04-18T01:21:24.767Z,10.80
2023-04-18T01:26:28.015Z,11.00
2023-04-18T01:31:30.802Z,10.50
2023-04-18T01:36:33.155Z,11.00
2023-04-18T01:41:35.210Z,13.20
2023-04-18T01:46:36.974Z,13.50
2023-04-18T01:51:38.973Z,9.10
2023-04-18T01:56:40.720Z,9.30
2023-04-18T02:01:42.841Z,9.70
2023-04-18T02:06:44.547Z,9.10
2023-04-18T02:11:46.506Z,10.10
2023-04-18T02:16:48.297Z,10.60
2023-04-18T02:21:51.294Z,8.90
2023-04-18T02:26:53.034Z,9.00
2023-04-18T02:31:54.721Z,13.00
2023-04-18T02:36:56.417Z,13.70
2023-04-18T02:41:58.816Z,11.40
2023-04-18T02:47:00.513Z,10.30
2023-04-18T02:52:02.266Z,10.00
2023-04-18T02:57:04.039Z,15.10
2023-04-18T03:02:29.069Z,11.00
2023-04-18T03:07:33.992Z,9.30
2023-04-18T03:12:35.800Z,9.20
2023-04-18T03:17:38.000Z,9.20
2023-04-18T03:22:40.321Z,14.50
2023-04-18T03:27:43.270Z,10.70
2023-04-18T03:32:49.023Z,10.00
2023-04-18T03:37:51.152Z,7.00
2023-04-18T03:42:59.939Z,8.30
2023-04-18T03:48:02.059Z,10.70
2023-04-18T03:53:06.758Z,15.40
2023-04-18T03:58:10.263Z,13.00
2023-04-18T04:07:12.079Z,13.00
2023-04-18T04:12:13.886Z,18.90
2023-04-18T04:17:15.997Z,16.90
2023-04-18T04:22:17.784Z,14.70
2023-04-18T04:27:20.623Z,12.70
2023-04-18T04:32:22.714Z,12.50
2023-04-18T04:37:24.780Z,13.50
2023-04-18T04:42:35.926Z,15.10
2023-04-18T04:47:43.335Z,16.30
2023-04-18T04:52:45.430Z,20.00
2023-04-18T04:57:47.838Z,19.10
2023-04-18T05:03:02.360Z,19.30
2023-04-18T05:08:04.672Z,19.10
2023-04-18T05:13:06.662Z,19.80
2023-04-18T05:18:09.098Z,18.40
2023-04-18T05:23:10.934Z,20.30
2023-04-18T05:28:12.606Z,21.10
2023-04-18T05:33:14.345Z,19.80
2023-04-18T05:38:16.084Z,20.10
2023-04-18T05:43:19.421Z,19.00
2023-04-18T05:48:23.001Z,18.20
2023-04-18T05:53:24.749Z,16.60
2023-04-18T05:58:28.718Z,15.70
2023-04-18T06:03:31.165Z,16.60
2023-04-18T06:08:33.374Z,17.10
2023-04-18T06:13:35.474Z,17.60
2023-04-18T06:18:37.619Z,16.60
2023-04-18T06:23:39.299Z,16.50
2023-04-18T06:28:41.108Z,17.20
2023-04-18T06:33:42.850Z,18.00
2023-04-18T06:38:45.150Z,14.90
2023-04-18T06:44:01.613Z,17.20
2023-04-18T06:49:04.254Z,15.60
2023-04-18T06:54:06.197Z,16.10
2023-04-18T06:59:07.931Z,14.90
2023-04-18T07:04:09.838Z,17.00
2023-04-18T07:09:11.829Z,15.10
2023-04-18T07:14:13.747Z,11.90
2023-04-18T07:19:15.651Z,11.70
2023-04-18T07:24:17.403Z,12.70
2023-04-18T07:29:22.031Z,13.30
2023-04-18T07:34:23.724Z,12.90
2023-04-18T07:39:25.578Z,13.70
2023-04-18T07:44:27.582Z,13.00
2023-04-18T07:49:29.313Z,13.00
2023-04-18T07:54:31.078Z,15.10
2023-04-18T07:59:32.982Z,14.50
2023-04-18T08:04:34.799Z,13.30
2023-04-18T08:09:36.660Z,12.70
2023-04-18T08:14:38.485Z,10.80
2023-04-18T08:19:40.166Z,10.60
2023-04-18T08:24:51.078Z,11.80
2023-04-18T08:30:04.747Z,13.40
2023-04-18T08:35:06.707Z,15.70
2023-04-18T08:40:08.977Z,12.70
2023-04-18T08:45:15.185Z,13.10
2023-04-18T08:50:17.323Z,10.90
2023-04-18T08:55:19.435Z,11.20
2023-04-18T09:00:22.731Z,14.10
2023-04-18T09:05:26.895Z,9.80
2023-04-18T09:10:32.928Z,11.20
2023-04-18T09:15:35.252Z,10.90
2023-04-18T09:20:42.194Z,9.60
2023-04-18T09:25:48.985Z,8.30
2023-04-18T09:30:52.694Z,9.80
2023-04-18T09:35:55.734Z,9.40
2023-04-18T09:41:11.140Z,8.70
2023-04-18T09:46:13.425Z,7.50
2023-04-18T09:51:16.632Z,8.20
2023-04-18T09:56:26.066Z,7.90
2023-04-18T10:01:29.733Z,8.30
2023-04-18T10:06:33.958Z,8.70
2023-04-18T10:11:36.577Z,7.70
2023-04-18T10:16:39.323Z,8.50
2023-04-18T10:21:51.799Z,8.40
2023-04-18T10:26:53.552Z,8.10
2023-04-18T10:31:55.777Z,6.70
2023-04-18T10:37:05.532Z,6.80
2023-04-18T10:42:07.240Z,6.40
2023-04-18T10:47:08.965Z,6.60
2023-04-18T10:57:13.944Z,5.60
2023-04-18T11:02:26.272Z,7.10
2023-04-18T11:07:36.460Z,5.90
2023-04-18T11:12:40.822Z,6.70
2023-04-18T11:17:42.930Z,5.70
2023-04-18T11:22:59.064Z,6.20
2023-04-18T11:28:02.743Z,6.00
2023-04-18T11:33:09.059Z,5.70
2023-04-18T11:38:15.602Z,5.20
2023-04-18T11:43:23.261Z,4.80
2023-04-18T11:48:37.736Z,5.20
2023-04-18T11:53:39.937Z,5.40
2023-04-18T11:58:42.930Z,8.80
2023-04-18T12:03:59.422Z,7.10
2023-04-18T12:09:01.547Z,6.50
2023-04-18T12:14:04.195Z,5.10
2023-04-18T12:19:06.316Z,5.10
2023-04-18T12:24:18.396Z,4.70
2023-04-18T12:29:20.124Z,4.40
2023-04-18T12:34:21.960Z,4.70
2023-04-18T12:39:23.734Z,4.40
2023-04-18T12:44:25.371Z,3.80
2023-04-18T12:49:26.993Z,4.40
2023-04-18T12:54:28.680Z,4.80
2023-04-18T12:59:30.842Z,4.00
2023-04-18T13:04:32.919Z,3.70
2023-04-18T13:09:35.557Z,3.70
2023-04-18T13:14:37.268Z,3.70
2023-04-18T13:19:38.943Z,4.40
2023-04-18T13:24:40.876Z,3.90
2023-04-18T13:29:43.807Z,3.30
2023-04-18T13:34:47.332Z,3.60
2023-04-18T13:39:49.177Z,3.70
2023-04-18T13:44:50.840Z,2.90
2023-04-18T13:49:52.686Z,4.10
2023-04-18T13:54:55.524Z,4.10
2023-04-18T13:59:57.449Z,4.30
2023-04-18T14:04:59.314Z,4.90
2023-04-18T14:10:01.147Z,4.40
2023-04-18T14:15:15.788Z,4.60
2023-04-18T14:20:20.789Z,4.30
2023-04-18T14:25:22.528Z,4.00
2023-04-18T14:30:24.678Z,4.20
2023-04-18T14:35:26.417Z,4.20
2023-04-18T14:40:29.145Z,3.90
2023-04-18T14:45:33.457Z,5.00
2023-04-18T14:50:36.325Z,4.00
2023-04-18T14:55:37.982Z,3.70
2023-04-18T15:00:39.647Z,4.20
2023-04-18T15:05:46.362Z,4.50
2023-04-18T15:10:48.155Z,5.70
2023-04-18T15:15:54.212Z,5.40
2023-04-18T15:20:56.990Z,5.90
2023-04-18T15:25:59.653Z,5.50
2023-04-18T15:31:01.457Z,5.00
2023-04-18T15:36:03.298Z,4.90
2023-04-18T15:41:05.254Z,4.40
2023-04-18T15:46:07.491Z,5.10
2023-04-18T15:51:09.261Z,5.60
2023-04-18T15:56:10.972Z,5.30
2023-04-18T16:01:16.113Z,5.30
2023-04-18T16:06:22.322Z,4.60
2023-04-18T16:11:27.569Z,4.40
2023-04-18T16:16:29.516Z,4.60
2023-04-18T16:21:32.562Z,5.20
2023-04-18T16:26:34.259Z,6.10
2023-04-18T16:31:36.172Z,6.40
2023-04-18T16:36:38.173Z,6.30
2023-04-18T16:41:39.868Z,8.50
2023-04-18T16:46:41.752Z,9.60
2023-04-18T16:51:43.611Z,8.60
2023-04-18T16:56:45.673Z,8.20
2023-04-18T17:01:47.435Z,10.70
2023-04-18T17:06:51.853Z,9.10
2023-04-18T17:11:53.971Z,11.20
2023-04-18T17:16:55.874Z,11.10
2023-04-18T17:21:57.591Z,10.50
2023-04-18T17:27:00.320Z,10.90
2023-04-18T17:32:02.070Z,10.00
2023-04-18T17:37:05.407Z,13.70
2023-04-18T17:42:07.127Z,12.90
2023-04-18T17:47:08.851Z,12.80
2023-04-18T17:52:10.767Z,11.80
2023-04-18T17:57:12.967Z,12.00
2023-04-18T18:02:15.219Z,12.70
2023-04-18T18:07:17.148Z,11.90
2023-04-18T18:12:18.854Z,11.00
2023-04-18T18:17:20.584Z,11.50
2023-04-18T18:22:24.852Z,11.60
2023-04-18T18:27:26.512Z,7.50
2023-04-18T18:32:28.609Z,7.30
2023-04-18T18:37:30.327Z,7.90
2023-04-18T18:42:32.084Z,7.40
2023-04-18T18:47:34.407Z,7.90
2023-04-18T18:52:36.964Z,9.70
2023-04-18T18:57:38.849Z,8.70
2023-04-18T19:02:40.840Z,11.30
2023-04-18T19:07:42.875Z,12.20
2023-04-18T19:12:44.859Z,11.60
2023-04-18T19:17:47.089Z,10.80
2023-04-18T19:22:49.257Z,14.10
2023-04-18T19:27:51.315Z,15.70
2023-04-18T19:32:53.603Z,17.30
2023-04-18T19:38:01.560Z,20.10
2023-04-18T19:43:03.322Z,14.80
2023-04-18T19:48:05.720Z,17.00
2023-04-18T19:53:08.336Z,17.90
2023-04-18T19:58:10.043Z,17.10
2023-04-18T20:03:15.196Z,15.30
2023-04-18T20:08:17.430Z,17.70
2023-04-18T20:13:19.099Z,16.60
2023-04-18T20:18:21.374Z,16.90
2023-04-18T20:23:23.091Z,17.50
2023-04-18T20:28:24.910Z,17.50
2023-04-18T20:33:26.704Z,16.80
2023-04-18T20:38:29.837Z,17.80
2023-04-18T20:43:36.635Z,18.00
2023-04-18T20:48:39.906Z,18.50
2023-04-18T20:53:41.856Z,16.60
2023-04-18T20:58:43.665Z,17.60
2023-04-18T21:03:45.732Z,16.10
2023-04-18T21:08:48.785Z,15.70
2023-04-18T21:13:55.472Z,16.30
2023-04-18T21:18:57.367Z,14.80
2023-04-18T21:23:59.039Z,17.10
2023-04-18T21:29:04.667Z,16.50
2023-04-18T21:34:06.540Z,17.40
2023-04-18T21:39:08.430Z,18.10
2023-04-18T21:44:11.265Z,17.90
2023-04-18T21:49:16.622Z,17.70
2023-04-18T21:54:19.923Z,18.50
2023-04-18T21:59:21.787Z,16.90
2023-04-18T22:04:26.199Z,19.40
2023-04-18T22:09:29.541Z,18.60
2023-04-18T22:14:34.106Z,17.70
2023-04-18T22:19:36.226Z,20.20
2023-04-18T22:24:37.953Z,20.50
2023-04-18T22:29:39.657Z,20.60
2023-04-18T22:34:41.553Z,19.70
2023-04-18T22:39:43.250Z,20.90
2023-04-18T22:44:46.168Z,19.50
2023-04-18T22:49:47.891Z,20.70
2023-04-18T22:54:49.616Z,23.10
2023-04-18T22:59:51.450Z,23.10
2023-04-18T23:04:53.504Z,24.30
2023-04-18T23:09:56.085Z,24.00
2023-04-18T23:14:58.655Z,23.90
2023-04-18T23:20:01.299Z,25.40
2023-04-18T23:25:03.275Z,25.60
2023-04-18T23:30:07.900Z,27.70
2023-04-18T23:35:15.692Z,27.20
2023-04-18T23:40:18.347Z,26.60
2023-04-18T23:45:20.233Z,25.50
2023-04-18T23:50:23.610Z,29.30
2023-04-18T23:55:25.374Z,25.20
